sensor_id;sensor_type;location;lat;lon;timestamp;temperature;humidity
56172;DHT22;42052;41.634;-0.946;2023-04-25T00:01:55;23.50;46.60
56172;DHT22;42052;41.634;-0.946;2023-04-25T00:04:42;23.40;46.50
56172;DHT22;42052;41.634;-0.946;2023-04-25T00:07:29;23.40;46.60
56172;DHT22;42052;41.634;-0.946;2023-04-25T00:10:15;23.40;46.80
56172;DHT22;42052;41.634;-0.946;2023-04-25T00:13:02;23.40;46.80
56172;DHT22;42052;41.634;-0.946;2023-04-25T00:15:48;23.50;46.90
56172;DHT22;42052;41.634;-0.946;2023-04-25T00:18:36;23.50;46.90
56172;DHT22;42052;41.634;-0.946;2023-04-25T00:21:22;23.40;47.00
56172;DHT22;42052;41.634;-0.946;2023-04-25T00:24:10;23.40;47.00
56172;DHT22;42052;41.634;-0.946;2023-04-25T00:26:56;23.40;47.00
56172;DHT22;42052;41.634;-0.946;2023-04-25T00:29:42;23.50;47.10
56172;DHT22;42052;41.634;-0.946;2023-04-25T00:32:28;23.50;47.10
56172;DHT22;42052;41.634;-0.946;2023-04-25T00:35:14;23.40;47.20
56172;DHT22;42052;41.634;-0.946;2023-04-25T00:38:00;23.50;47.20
56172;DHT22;42052;41.634;-0.946;2023-04-25T00:40:47;23.40;47.20
56172;DHT22;42052;41.634;-0.946;2023-04-25T00:43:34;23.40;47.30
56172;DHT22;42052;41.634;-0.946;2023-04-25T00:46:22;23.40;47.30
56172;DHT22;42052;41.634;-0.946;2023-04-25T00:49:08;23.40;47.30
56172;DHT22;42052;41.634;-0.946;2023-04-25T00:51:55;23.40;47.20
56172;DHT22;42052;41.634;-0.946;2023-04-25T00:54:42;23.40;47.30
56172;DHT22;42052;41.634;-0.946;2023-04-25T00:57:29;23.40;47.30
56172;DHT22;42052;41.634;-0.946;2023-04-25T01:00:15;23.40;47.40
56172;DHT22;42052;41.634;-0.946;2023-04-25T01:03:01;23.30;47.40
56172;DHT22;42052;41.634;-0.946;2023-04-25T01:05:50;23.30;47.50
56172;DHT22;42052;41.634;-0.946;2023-04-25T01:08:38;23.30;47.50
56172;DHT22;42052;41.634;-0.946;2023-04-25T01:11:24;23.40;47.60
56172;DHT22;42052;41.634;-0.946;2023-04-25T01:14:11;23.30;47.50
56172;DHT22;42052;41.634;-0.946;2023-04-25T01:16:59;23.40;47.60
56172;DHT22;42052;41.634;-0.946;2023-04-25T01:19:46;23.30;47.60
56172;DHT22;42052;41.634;-0.946;2023-04-25T01:22:34;23.40;47.30
56172;DHT22;42052;41.634;-0.946;2023-04-25T01:25:22;23.30;47.50
56172;DHT22;42052;41.634;-0.946;2023-04-25T01:28:08;23.40;47.60
56172;DHT22;42052;41.634;-0.946;2023-04-25T01:30:55;23.30;47.50
56172;DHT22;42052;41.634;-0.946;2023-04-25T01:33:42;23.30;47.50
56172;DHT22;42052;41.634;-0.946;2023-04-25T01:36:28;23.30;47.50
56172;DHT22;42052;41.634;-0.946;2023-04-25T01:39:15;23.30;47.50
56172;DHT22;42052;41.634;-0.946;2023-04-25T01:42:01;23.30;47.50
56172;DHT22;42052;41.634;-0.946;2023-04-25T01:44:48;23.30;47.50
56172;DHT22;42052;41.634;-0.946;2023-04-25T01:47:34;23.20;47.50
56172;DHT22;42052;41.634;-0.946;2023-04-25T01:50:23;23.30;47.50
56172;DHT22;42052;41.634;-0.946;2023-04-25T01:53:10;23.30;47.50
56172;DHT22;42052;41.634;-0.946;2023-04-25T01:55:58;23.30;47.50
56172;DHT22;42052;41.634;-0.946;2023-04-25T01:58:45;23.20;47.40
56172;DHT22;42052;41.634;-0.946;2023-04-25T02:01:31;23.30;47.40
56172;DHT22;42052;41.634;-0.946;2023-04-25T02:04:17;23.30;47.50
56172;DHT22;42052;41.634;-0.946;2023-04-25T02:07:04;23.30;47.50
56172;DHT22;42052;41.634;-0.946;2023-04-25T02:09:51;23.20;47.40
56172;DHT22;42052;41.634;-0.946;2023-04-25T02:12:37;23.20;48.10
56172;DHT22;42052;41.634;-0.946;2023-04-25T02:15:24;23.20;47.40
56172;DHT22;42052;41.634;-0.946;2023-04-25T02:18:11;23.30;47.30
56172;DHT22;42052;41.634;-0.946;2023-04-25T02:20:59;23.30;47.40
56172;DHT22;42052;41.634;-0.946;2023-04-25T02:23:45;23.20;47.30
56172;DHT22;42052;41.634;-0.946;2023-04-25T02:26:34;23.20;47.40
56172;DHT22;42052;41.634;-0.946;2023-04-25T02:29:21;23.20;47.30
56172;DHT22;42052;41.634;-0.946;2023-04-25T02:32:07;23.20;47.30
56172;DHT22;42052;41.634;-0.946;2023-04-25T02:34:53;23.20;47.30
56172;DHT22;42052;41.634;-0.946;2023-04-25T02:37:40;23.20;47.30
56172;DHT22;42052;41.634;-0.946;2023-04-25T02:40:26;23.20;47.30
56172;DHT22;42052;41.634;-0.946;2023-04-25T02:43:13;23.20;47.40
56172;DHT22;42052;41.634;-0.946;2023-04-25T02:45:59;23.20;47.30
56172;DHT22;42052;41.634;-0.946;2023-04-25T02:48:46;23.20;47.30
56172;DHT22;42052;41.634;-0.946;2023-04-25T02:51:32;23.30;47.30
56172;DHT22;42052;41.634;-0.946;2023-04-25T02:54:18;23.20;47.20
56172;DHT22;42052;41.634;-0.946;2023-04-25T02:57:04;23.20;47.30
56172;DHT22;42052;41.634;-0.946;2023-04-25T02:59:50;23.20;47.20
56172;DHT22;42052;41.634;-0.946;2023-04-25T03:02:38;23.20;47.30
56172;DHT22;42052;41.634;-0.946;2023-04-25T03:05:24;23.20;47.10
56172;DHT22;42052;41.634;-0.946;2023-04-25T03:08:10;23.20;47.20
56172;DHT22;42052;41.634;-0.946;2023-04-25T03:10:56;23.20;47.10
56172;DHT22;42052;41.634;-0.946;2023-04-25T03:13:43;23.20;47.20
56172;DHT22;42052;41.634;-0.946;2023-04-25T03:16:29;23.20;47.20
56172;DHT22;42052;41.634;-0.946;2023-04-25T03:19:16;23.20;47.10
56172;DHT22;42052;41.634;-0.946;2023-04-25T03:22:03;23.20;47.10
56172;DHT22;42052;41.634;-0.946;2023-04-25T03:24:49;23.20;47.00
56172;DHT22;42052;41.634;-0.946;2023-04-25T03:27:36;23.20;47.80
56172;DHT22;42052;41.634;-0.946;2023-04-25T03:30:22;23.20;47.00
56172;DHT22;42052;41.634;-0.946;2023-04-25T03:33:08;23.20;47.00
56172;DHT22;42052;41.634;-0.946;2023-04-25T03:35:54;23.20;46.90
56172;DHT22;42052;41.634;-0.946;2023-04-25T03:38:41;23.20;47.00
56172;DHT22;42052;41.634;-0.946;2023-04-25T03:41:27;23.20;47.00
56172;DHT22;42052;41.634;-0.946;2023-04-25T03:44:14;23.20;47.00
56172;DHT22;42052;41.634;-0.946;2023-04-25T03:47:00;23.20;47.00
56172;DHT22;42052;41.634;-0.946;2023-04-25T03:49:46;23.10;47.00
56172;DHT22;42052;41.634;-0.946;2023-04-25T03:52:32;23.20;47.10
56172;DHT22;42052;41.634;-0.946;2023-04-25T03:55:18;23.20;47.00
56172;DHT22;42052;41.634;-0.946;2023-04-25T03:58:05;23.20;47.00
56172;DHT22;42052;41.634;-0.946;2023-04-25T04:00:51;23.20;47.00
56172;DHT22;42052;41.634;-0.946;2023-04-25T04:03:37;23.20;47.20
56172;DHT22;42052;41.634;-0.946;2023-04-25T04:06:24;23.20;47.30
56172;DHT22;42052;41.634;-0.946;2023-04-25T04:09:11;23.10;47.20
56172;DHT22;42052;41.634;-0.946;2023-04-25T04:11:58;23.10;47.40
56172;DHT22;42052;41.634;-0.946;2023-04-25T04:14:44;23.10;47.40
56172;DHT22;42052;41.634;-0.946;2023-04-25T04:17:30;23.10;47.50
56172;DHT22;42052;41.634;-0.946;2023-04-25T04:20:17;23.10;47.50
56172;DHT22;42052;41.634;-0.946;2023-04-25T04:23:03;23.10;47.60
56172;DHT22;42052;41.634;-0.946;2023-04-25T04:25:49;23.10;47.50
56172;DHT22;42052;41.634;-0.946;2023-04-25T04:28:35;23.10;47.60
56172;DHT22;42052;41.634;-0.946;2023-04-25T04:31:22;23.10;47.60
56172;DHT22;42052;41.634;-0.946;2023-04-25T04:34:08;23.10;47.60
56172;DHT22;42052;41.634;-0.946;2023-04-25T04:36:55;23.10;47.60
56172;DHT22;42052;41.634;-0.946;2023-04-25T04:39:42;23.10;47.60
56172;DHT22;42052;41.634;-0.946;2023-04-25T04:42:28;23.10;47.60
56172;DHT22;42052;41.634;-0.946;2023-04-25T04:45:15;23.10;47.70
56172;DHT22;42052;41.634;-0.946;2023-04-25T04:48:01;23.10;47.50
56172;DHT22;42052;41.634;-0.946;2023-04-25T04:50:47;23.10;47.50
56172;DHT22;42052;41.634;-0.946;2023-04-25T04:53:34;23.20;47.30
56172;DHT22;42052;41.634;-0.946;2023-04-25T04:56:20;23.20;47.30
56172;DHT22;42052;41.634;-0.946;2023-04-25T04:59:09;23.20;47.20
56172;DHT22;42052;41.634;-0.946;2023-04-25T05:01:56;23.20;47.20
56172;DHT22;42052;41.634;-0.946;2023-04-25T05:04:42;23.20;47.20
56172;DHT22;42052;41.634;-0.946;2023-04-25T05:07:28;23.10;47.10
56172;DHT22;42052;41.634;-0.946;2023-04-25T05:10:17;23.10;47.00
56172;DHT22;42052;41.634;-0.946;2023-04-25T05:13:04;23.10;47.30
56172;DHT22;42052;41.634;-0.946;2023-04-25T05:15:50;23.10;47.30
56172;DHT22;42052;41.634;-0.946;2023-04-25T05:18:37;23.10;47.40
56172;DHT22;42052;41.634;-0.946;2023-04-25T05:21:23;23.20;47.30
56172;DHT22;42052;41.634;-0.946;2023-04-25T05:24:09;23.10;47.20
56172;DHT22;42052;41.634;-0.946;2023-04-25T05:26:55;23.20;47.60
56172;DHT22;42052;41.634;-0.946;2023-04-25T05:29:42;23.20;48.50
56172;DHT22;42052;41.634;-0.946;2023-04-25T05:32:29;23.20;49.80
56172;DHT22;42052;41.634;-0.946;2023-04-25T05:35:15;23.20;50.50
56172;DHT22;42052;41.634;-0.946;2023-04-25T05:38:01;23.30;51.50
56172;DHT22;42052;41.634;-0.946;2023-04-25T05:40:47;23.30;52.00
56172;DHT22;42052;41.634;-0.946;2023-04-25T05:43:33;23.30;51.70
56172;DHT22;42052;41.634;-0.946;2023-04-25T05:46:19;23.40;52.00
56172;DHT22;42052;41.634;-0.946;2023-04-25T05:49:05;23.40;53.40
56172;DHT22;42052;41.634;-0.946;2023-04-25T05:51:51;23.30;53.70
56172;DHT22;42052;41.634;-0.946;2023-04-25T05:54:38;23.30;53.70
56172;DHT22;42052;41.634;-0.946;2023-04-25T05:57:25;23.30;53.10
56172;DHT22;42052;41.634;-0.946;2023-04-25T06:00:13;23.30;53.80
56172;DHT22;42052;41.634;-0.946;2023-04-25T06:03:00;23.30;54.20
56172;DHT22;42052;41.634;-0.946;2023-04-25T06:05:47;23.30;53.50
56172;DHT22;42052;41.634;-0.946;2023-04-25T06:08:33;23.30;53.50
56172;DHT22;42052;41.634;-0.946;2023-04-25T06:11:19;23.30;52.50
56172;DHT22;42052;41.634;-0.946;2023-04-25T06:14:06;23.30;52.80
56172;DHT22;42052;41.634;-0.946;2023-04-25T06:16:52;23.30;52.80
56172;DHT22;42052;41.634;-0.946;2023-04-25T06:19:40;23.20;52.80
56172;DHT22;42052;41.634;-0.946;2023-04-25T06:22:26;23.20;53.00
56172;DHT22;42052;41.634;-0.946;2023-04-25T06:25:13;23.30;52.90
56172;DHT22;42052;41.634;-0.946;2023-04-25T06:27:59;23.20;52.10
56172;DHT22;42052;41.634;-0.946;2023-04-25T06:30:45;23.20;52.20
56172;DHT22;42052;41.634;-0.946;2023-04-25T06:33:31;23.30;51.70
56172;DHT22;42052;41.634;-0.946;2023-04-25T06:36:18;23.30;51.70
56172;DHT22;42052;41.634;-0.946;2023-04-25T06:39:06;23.30;51.50
56172;DHT22;42052;41.634;-0.946;2023-04-25T06:41:53;23.30;51.50
56172;DHT22;42052;41.634;-0.946;2023-04-25T06:44:39;23.30;51.30
56172;DHT22;42052;41.634;-0.946;2023-04-25T06:47:25;23.20;51.50
56172;DHT22;42052;41.634;-0.946;2023-04-25T06:50:11;23.30;51.50
56172;DHT22;42052;41.634;-0.946;2023-04-25T06:52:57;23.30;51.40
56172;DHT22;42052;41.634;-0.946;2023-04-25T06:55:45;23.30;51.20
56172;DHT22;42052;41.634;-0.946;2023-04-25T06:58:32;23.30;51.10
56172;DHT22;42052;41.634;-0.946;2023-04-25T07:01:18;23.30;51.20
56172;DHT22;42052;41.634;-0.946;2023-04-25T07:04:04;23.30;51.00
56172;DHT22;42052;41.634;-0.946;2023-04-25T07:06:50;23.20;51.30
56172;DHT22;42052;41.634;-0.946;2023-04-25T07:09:37;23.30;51.40
56172;DHT22;42052;41.634;-0.946;2023-04-25T07:12:41;23.30;51.00
56172;DHT22;42052;41.634;-0.946;2023-04-25T07:15:27;23.30;50.90
56172;DHT22;42052;41.634;-0.946;2023-04-25T07:18:14;23.30;50.90
56172;DHT22;42052;41.634;-0.946;2023-04-25T07:21:01;23.20;50.90
56172;DHT22;42052;41.634;-0.946;2023-04-25T07:23:47;23.30;50.40
56172;DHT22;42052;41.634;-0.946;2023-04-25T07:26:33;23.30;50.00
56172;DHT22;42052;41.634;-0.946;2023-04-25T07:29:19;23.30;50.20
56172;DHT22;42052;41.634;-0.946;2023-04-25T07:32:06;23.30;50.20
56172;DHT22;42052;41.634;-0.946;2023-04-25T07:34:53;23.30;50.30
56172;DHT22;42052;41.634;-0.946;2023-04-25T07:37:40;23.30;50.10
56172;DHT22;42052;41.634;-0.946;2023-04-25T07:40:26;23.40;50.40
56172;DHT22;42052;41.634;-0.946;2023-04-25T07:43:12;23.30;50.10
56172;DHT22;42052;41.634;-0.946;2023-04-25T07:46:02;23.30;50.20
56172;DHT22;42052;41.634;-0.946;2023-04-25T07:48:48;23.30;50.30
56172;DHT22;42052;41.634;-0.946;2023-04-25T07:51:34;23.30;50.10
56172;DHT22;42052;41.634;-0.946;2023-04-25T07:54:20;23.30;50.30
56172;DHT22;42052;41.634;-0.946;2023-04-25T07:57:07;23.30;50.10
56172;DHT22;42052;41.634;-0.946;2023-04-25T07:59:53;23.20;50.20
56172;DHT22;42052;41.634;-0.946;2023-04-25T08:02:40;23.30;50.40
56172;DHT22;42052;41.634;-0.946;2023-04-25T08:05:26;23.30;50.20
56172;DHT22;42052;41.634;-0.946;2023-04-25T08:08:12;23.20;50.30
56172;DHT22;42052;41.634;-0.946;2023-04-25T08:10:58;23.20;50.20
56172;DHT22;42052;41.634;-0.946;2023-04-25T08:13:45;23.30;50.30
56172;DHT22;42052;41.634;-0.946;2023-04-25T08:16:32;23.30;50.20
56172;DHT22;42052;41.634;-0.946;2023-04-25T08:19:18;23.20;50.40
56172;DHT22;42052;41.634;-0.946;2023-04-25T08:22:04;23.30;50.50
56172;DHT22;42052;41.634;-0.946;2023-04-25T08:24:50;23.20;50.20
56172;DHT22;42052;41.634;-0.946;2023-04-25T08:27:37;23.30;50.50
56172;DHT22;42052;41.634;-0.946;2023-04-25T08:30:23;23.20;50.40
56172;DHT22;42052;41.634;-0.946;2023-04-25T08:33:09;23.30;50.50
56172;DHT22;42052;41.634;-0.946;2023-04-25T08:35:56;23.30;50.50
56172;DHT22;42052;41.634;-0.946;2023-04-25T08:38:43;23.30;50.30
56172;DHT22;42052;41.634;-0.946;2023-04-25T08:41:29;23.30;50.20
56172;DHT22;42052;41.634;-0.946;2023-04-25T08:44:16;23.20;50.40
56172;DHT22;42052;41.634;-0.946;2023-04-25T08:47:03;23.30;50.50
56172;DHT22;42052;41.634;-0.946;2023-04-25T08:49:52;23.20;50.30
56172;DHT22;42052;41.634;-0.946;2023-04-25T08:52:45;23.30;50.50
56172;DHT22;42052;41.634;-0.946;2023-04-25T08:55:33;23.30;50.30
56172;DHT22;42052;41.634;-0.946;2023-04-25T08:58:19;23.30;50.40
56172;DHT22;42052;41.634;-0.946;2023-04-25T09:01:06;23.30;50.20
56172;DHT22;42052;41.634;-0.946;2023-04-25T09:03:52;23.30;50.30
56172;DHT22;42052;41.634;-0.946;2023-04-25T09:06:38;23.30;50.30
56172;DHT22;42052;41.634;-0.946;2023-04-25T09:09:25;23.30;50.30
56172;DHT22;42052;41.634;-0.946;2023-04-25T09:12:11;23.30;50.20
56172;DHT22;42052;41.634;-0.946;2023-04-25T09:15:03;23.30;50.40
56172;DHT22;42052;41.634;-0.946;2023-04-25T09:17:59;23.30;50.40
56172;DHT22;42052;41.634;-0.946;2023-04-25T09:20:46;23.30;50.40
56172;DHT22;42052;41.634;-0.946;2023-04-25T09:23:48;23.30;50.50
56172;DHT22;42052;41.634;-0.946;2023-04-25T09:26:35;23.30;50.90
56172;DHT22;42052;41.634;-0.946;2023-04-25T09:29:29;23.30;51.00
56172;DHT22;42052;41.634;-0.946;2023-04-25T09:32:22;23.30;50.90
56172;DHT22;42052;41.634;-0.946;2023-04-25T09:35:08;23.30;50.50
56172;DHT22;42052;41.634;-0.946;2023-04-25T09:37:55;23.30;50.40
56172;DHT22;42052;41.634;-0.946;2023-04-25T09:40:45;23.30;50.30
56172;DHT22;42052;41.634;-0.946;2023-04-25T09:43:31;23.40;50.00
56172;DHT22;42052;41.634;-0.946;2023-04-25T09:46:17;23.40;49.90
56172;DHT22;42052;41.634;-0.946;2023-04-25T09:49:07;23.30;50.20
56172;DHT22;42052;41.634;-0.946;2023-04-25T09:51:57;23.40;49.90
56172;DHT22;42052;41.634;-0.946;2023-04-25T09:54:48;23.40;49.60
56172;DHT22;42052;41.634;-0.946;2023-04-25T09:57:36;23.40;49.60
56172;DHT22;42052;41.634;-0.946;2023-04-25T10:00:27;23.40;49.50
56172;DHT22;42052;41.634;-0.946;2023-04-25T10:03:15;23.40;49.40
56172;DHT22;42052;41.634;-0.946;2023-04-25T10:06:03;23.40;49.30
56172;DHT22;42052;41.634;-0.946;2023-04-25T10:08:51;23.40;49.20
56172;DHT22;42052;41.634;-0.946;2023-04-25T10:11:39;23.50;49.30
56172;DHT22;42052;41.634;-0.946;2023-04-25T10:14:32;23.40;49.20
56172;DHT22;42052;41.634;-0.946;2023-04-25T10:17:19;23.50;49.20
56172;DHT22;42052;41.634;-0.946;2023-04-25T10:20:07;23.50;49.10
56172;DHT22;42052;41.634;-0.946;2023-04-25T10:23:03;23.50;49.00
56172;DHT22;42052;41.634;-0.946;2023-04-25T10:25:52;23.40;49.10
56172;DHT22;42052;41.634;-0.946;2023-04-25T10:28:58;23.40;49.10
56172;DHT22;42052;41.634;-0.946;2023-04-25T10:31:46;23.50;49.20
56172;DHT22;42052;41.634;-0.946;2023-04-25T10:34:43;23.40;49.10
56172;DHT22;42052;41.634;-0.946;2023-04-25T10:37:32;23.50;49.10
56172;DHT22;42052;41.634;-0.946;2023-04-25T10:40:22;23.50;49.00
56172;DHT22;42052;41.634;-0.946;2023-04-25T10:49:08;23.50;49.00
56172;DHT22;42052;41.634;-0.946;2023-04-25T10:52:15;23.50;49.00
56172;DHT22;42052;41.634;-0.946;2023-04-25T10:55:03;23.60;48.90
56172;DHT22;42052;41.634;-0.946;2023-04-25T10:57:50;23.60;48.80
56172;DHT22;42052;41.634;-0.946;2023-04-25T11:00:37;23.60;48.60
56172;DHT22;42052;41.634;-0.946;2023-04-25T11:03:26;23.60;48.70
56172;DHT22;42052;41.634;-0.946;2023-04-25T11:06:42;23.60;48.70
56172;DHT22;42052;41.634;-0.946;2023-04-25T11:09:30;23.60;48.60
56172;DHT22;42052;41.634;-0.946;2023-04-25T11:12:16;23.60;48.50
56172;DHT22;42052;41.634;-0.946;2023-04-25T11:15:04;23.60;48.50
56172;DHT22;42052;41.634;-0.946;2023-04-25T11:17:52;23.60;48.40
56172;DHT22;42052;41.634;-0.946;2023-04-25T11:20:38;23.60;48.40
56172;DHT22;42052;41.634;-0.946;2023-04-25T11:23:30;23.60;48.30
56172;DHT22;42052;41.634;-0.946;2023-04-25T11:26:16;23.70;48.30
56172;DHT22;42052;41.634;-0.946;2023-04-25T11:29:02;23.70;48.30
56172;DHT22;42052;41.634;-0.946;2023-04-25T11:31:48;23.70;48.20
56172;DHT22;42052;41.634;-0.946;2023-04-25T11:34:35;23.70;48.20
56172;DHT22;42052;41.634;-0.946;2023-04-25T11:37:21;23.70;48.10
56172;DHT22;42052;41.634;-0.946;2023-04-25T11:40:08;23.70;48.10
56172;DHT22;42052;41.634;-0.946;2023-04-25T11:43:00;23.70;48.10
56172;DHT22;42052;41.634;-0.946;2023-04-25T11:45:47;23.70;48.00
56172;DHT22;42052;41.634;-0.946;2023-04-25T11:48:53;23.70;48.00
56172;DHT22;42052;41.634;-0.946;2023-04-25T11:51:43;23.80;47.90
56172;DHT22;42052;41.634;-0.946;2023-04-25T11:54:29;23.70;47.90
56172;DHT22;42052;41.634;-0.946;2023-04-25T11:57:19;23.80;47.90
56172;DHT22;42052;41.634;-0.946;2023-04-25T12:03:15;23.70;47.80
56172;DHT22;42052;41.634;-0.946;2023-04-25T12:06:03;23.80;47.80
56172;DHT22;42052;41.634;-0.946;2023-04-25T12:09:04;23.80;47.80
56172;DHT22;42052;41.634;-0.946;2023-04-25T12:11:55;23.80;47.70
56172;DHT22;42052;41.634;-0.946;2023-04-25T12:14:47;23.80;47.70
56172;DHT22;42052;41.634;-0.946;2023-04-25T12:17:41;23.80;47.70
56172;DHT22;42052;41.634;-0.946;2023-04-25T12:20:28;23.80;47.70
56172;DHT22;42052;41.634;-0.946;2023-04-25T12:23:14;23.80;47.70
56172;DHT22;42052;41.634;-0.946;2023-04-25T12:26:00;23.80;47.70
56172;DHT22;42052;41.634;-0.946;2023-04-25T12:28:48;23.80;47.60
56172;DHT22;42052;41.634;-0.946;2023-04-25T12:31:35;23.80;47.60
56172;DHT22;42052;41.634;-0.946;2023-04-25T12:34:22;23.80;47.60
56172;DHT22;42052;41.634;-0.946;2023-04-25T12:37:08;23.80;47.60
56172;DHT22;42052;41.634;-0.946;2023-04-25T12:39:55;23.80;47.50
56172;DHT22;42052;41.634;-0.946;2023-04-25T12:42:41;23.80;47.60
56172;DHT22;42052;41.634;-0.946;2023-04-25T12:45:27;23.80;47.50
56172;DHT22;42052;41.634;-0.946;2023-04-25T12:48:13;23.80;47.50
56172;DHT22;42052;41.634;-0.946;2023-04-25T12:51:00;23.90;47.50
56172;DHT22;42052;41.634;-0.946;2023-04-25T12:53:46;23.80;47.50
56172;DHT22;42052;41.634;-0.946;2023-04-25T12:56:33;23.90;47.50
56172;DHT22;42052;41.634;-0.946;2023-04-25T12:59:19;23.90;47.50
56172;DHT22;42052;41.634;-0.946;2023-04-25T13:02:06;23.90;47.40
56172;DHT22;42052;41.634;-0.946;2023-04-25T13:04:52;23.90;48.10
56172;DHT22;42052;41.634;-0.946;2023-04-25T13:07:38;23.90;47.40
56172;DHT22;42052;41.634;-0.946;2023-04-25T13:10:24;23.90;47.30
56172;DHT22;42052;41.634;-0.946;2023-04-25T13:13:10;23.90;47.30
56172;DHT22;42052;41.634;-0.946;2023-04-25T13:15:57;23.90;47.30
56172;DHT22;42052;41.634;-0.946;2023-04-25T13:18:43;23.90;47.40
56172;DHT22;42052;41.634;-0.946;2023-04-25T13:21:30;23.90;47.30
56172;DHT22;42052;41.634;-0.946;2023-04-25T13:24:18;23.90;47.30
56172;DHT22;42052;41.634;-0.946;2023-04-25T13:27:04;23.90;47.30
56172;DHT22;42052;41.634;-0.946;2023-04-25T13:29:50;23.90;47.30
56172;DHT22;42052;41.634;-0.946;2023-04-25T13:32:55;23.90;47.20
56172;DHT22;42052;41.634;-0.946;2023-04-25T13:35:57;23.90;47.20
56172;DHT22;42052;41.634;-0.946;2023-04-25T13:38:43;24.00;47.20
56172;DHT22;42052;41.634;-0.946;2023-04-25T13:41:30;24.00;47.30
56172;DHT22;42052;41.634;-0.946;2023-04-25T13:44:16;23.90;47.20
56172;DHT22;42052;41.634;-0.946;2023-04-25T13:47:03;23.90;47.20
56172;DHT22;42052;41.634;-0.946;2023-04-25T13:49:51;23.90;47.10
56172;DHT22;42052;41.634;-0.946;2023-04-25T13:52:37;24.00;47.20
56172;DHT22;42052;41.634;-0.946;2023-04-25T13:55:23;24.00;47.20
56172;DHT22;42052;41.634;-0.946;2023-04-25T13:58:09;23.90;47.10
56172;DHT22;42052;41.634;-0.946;2023-04-25T14:00:55;24.00;47.20
56172;DHT22;42052;41.634;-0.946;2023-04-25T14:03:44;24.00;47.20
56172;DHT22;42052;41.634;-0.946;2023-04-25T14:06:31;24.00;47.20
56172;DHT22;42052;41.634;-0.946;2023-04-25T14:09:19;24.00;47.20
56172;DHT22;42052;41.634;-0.946;2023-04-25T14:12:06;24.00;47.20
56172;DHT22;42052;41.634;-0.946;2023-04-25T14:14:52;24.00;47.20
56172;DHT22;42052;41.634;-0.946;2023-04-25T14:17:38;24.00;47.20
56172;DHT22;42052;41.634;-0.946;2023-04-25T14:20:25;24.00;47.20
56172;DHT22;42052;41.634;-0.946;2023-04-25T14:23:12;24.00;47.20
56172;DHT22;42052;41.634;-0.946;2023-04-25T14:25:59;24.00;47.20
56172;DHT22;42052;41.634;-0.946;2023-04-25T14:28:46;24.00;47.10
56172;DHT22;42052;41.634;-0.946;2023-04-25T14:31:35;24.00;47.20
56172;DHT22;42052;41.634;-0.946;2023-04-25T14:34:21;24.00;47.10
56172;DHT22;42052;41.634;-0.946;2023-04-25T14:37:07;24.00;47.10
56172;DHT22;42052;41.634;-0.946;2023-04-25T14:39:54;24.00;47.10
56172;DHT22;42052;41.634;-0.946;2023-04-25T14:42:40;24.00;47.10
56172;DHT22;42052;41.634;-0.946;2023-04-25T14:45:27;24.00;47.20
56172;DHT22;42052;41.634;-0.946;2023-04-25T14:48:13;24.00;47.10
56172;DHT22;42052;41.634;-0.946;2023-04-25T14:51:00;24.00;47.80
56172;DHT22;42052;41.634;-0.946;2023-04-25T14:53:46;24.00;47.00
56172;DHT22;42052;41.634;-0.946;2023-04-25T14:56:32;24.00;47.10
56172;DHT22;42052;41.634;-0.946;2023-04-25T14:59:18;24.00;47.00
56172;DHT22;42052;41.634;-0.946;2023-04-25T15:02:06;24.00;47.00
56172;DHT22;42052;41.634;-0.946;2023-04-25T15:04:53;24.00;47.00
56172;DHT22;42052;41.634;-0.946;2023-04-25T15:07:39;24.00;47.00
56172;DHT22;42052;41.634;-0.946;2023-04-25T15:10:26;24.00;47.40
56172;DHT22;42052;41.634;-0.946;2023-04-25T15:13:12;24.00;47.00
56172;DHT22;42052;41.634;-0.946;2023-04-25T15:15:58;24.10;47.00
56172;DHT22;42052;41.634;-0.946;2023-04-25T15:18:44;24.00;47.00
56172;DHT22;42052;41.634;-0.946;2023-04-25T15:21:31;24.00;47.00
56172;DHT22;42052;41.634;-0.946;2023-04-25T15:24:17;24.00;47.10
56172;DHT22;42052;41.634;-0.946;2023-04-25T15:27:04;24.00;47.00
56172;DHT22;42052;41.634;-0.946;2023-04-25T15:29:51;24.00;47.00
56172;DHT22;42052;41.634;-0.946;2023-04-25T15:32:38;24.00;47.00
56172;DHT22;42052;41.634;-0.946;2023-04-25T15:35:25;24.00;47.00
56172;DHT22;42052;41.634;-0.946;2023-04-25T15:38:11;24.10;47.00
56172;DHT22;42052;41.634;-0.946;2023-04-25T15:40:57;24.10;47.00
56172;DHT22;42052;41.634;-0.946;2023-04-25T15:43:43;24.10;47.10
56172;DHT22;42052;41.634;-0.946;2023-04-25T15:46:29;24.10;47.00
56172;DHT22;42052;41.634;-0.946;2023-04-25T15:49:16;24.00;47.00
56172;DHT22;42052;41.634;-0.946;2023-04-25T15:52:04;24.00;47.00
56172;DHT22;42052;41.634;-0.946;2023-04-25T15:54:50;24.00;47.00
56172;DHT22;42052;41.634;-0.946;2023-04-25T15:57:37;24.10;47.80
56172;DHT22;42052;41.634;-0.946;2023-04-25T16:00:24;24.00;47.00
56172;DHT22;42052;41.634;-0.946;2023-04-25T16:03:10;24.10;47.00
56172;DHT22;42052;41.634;-0.946;2023-04-25T16:05:58;24.10;47.00
56172;DHT22;42052;41.634;-0.946;2023-04-25T16:08:45;24.10;47.00
56172;DHT22;42052;41.634;-0.946;2023-04-25T16:11:32;24.10;47.00
56172;DHT22;42052;41.634;-0.946;2023-04-25T16:14:18;24.10;47.10
56172;DHT22;42052;41.634;-0.946;2023-04-25T16:17:04;24.10;47.10
56172;DHT22;42052;41.634;-0.946;2023-04-25T16:19:50;24.10;47.10
56172;DHT22;42052;41.634;-0.946;2023-04-25T16:22:39;24.10;47.20
56172;DHT22;42052;41.634;-0.946;2023-04-25T16:25:26;24.10;47.20
56172;DHT22;42052;41.634;-0.946;2023-04-25T16:28:12;24.10;47.30
56172;DHT22;42052;41.634;-0.946;2023-04-25T16:30:58;24.10;47.30
56172;DHT22;42052;41.634;-0.946;2023-04-25T16:33:45;24.10;47.30
56172;DHT22;42052;41.634;-0.946;2023-04-25T16:36:31;24.10;47.40
56172;DHT22;42052;41.634;-0.946;2023-04-25T16:39:18;24.10;47.40
56172;DHT22;42052;41.634;-0.946;2023-04-25T16:42:06;24.10;47.30
56172;DHT22;42052;41.634;-0.946;2023-04-25T16:44:52;24.10;47.30
56172;DHT22;42052;41.634;-0.946;2023-04-25T16:47:38;24.10;47.30
56172;DHT22;42052;41.634;-0.946;2023-04-25T16:50:24;24.10;47.40
56172;DHT22;42052;41.634;-0.946;2023-04-25T16:53:11;24.10;47.30
56172;DHT22;42052;41.634;-0.946;2023-04-25T16:55:58;24.10;47.40
56172;DHT22;42052;41.634;-0.946;2023-04-25T16:58:45;24.10;47.40
56172;DHT22;42052;41.634;-0.946;2023-04-25T17:01:31;24.10;47.40
56172;DHT22;42052;41.634;-0.946;2023-04-25T17:04:17;24.10;47.50
56172;DHT22;42052;41.634;-0.946;2023-04-25T17:07:05;24.10;47.50
56172;DHT22;42052;41.634;-0.946;2023-04-25T17:09:53;24.10;47.40
56172;DHT22;42052;41.634;-0.946;2023-04-25T17:12:39;24.10;47.30
56172;DHT22;42052;41.634;-0.946;2023-04-25T17:15:26;24.10;47.40
56172;DHT22;42052;41.634;-0.946;2023-04-25T17:18:13;24.10;47.40
56172;DHT22;42052;41.634;-0.946;2023-04-25T17:20:59;24.10;47.40
56172;DHT22;42052;41.634;-0.946;2023-04-25T17:23:48;24.10;47.40
56172;DHT22;42052;41.634;-0.946;2023-04-25T17:26:35;24.10;47.40
56172;DHT22;42052;41.634;-0.946;2023-04-25T17:29:22;24.10;47.40